| Temperature (°F) | Max | Average | Min |
|---|---|---|---|
| Max Temperature | 106 | 103.2 | 100 |
| Avg Temperature | 92.13 | 88.09 | 83.56 |
| Min Temperature | 79 | 74.27 | 66 |
| Dew Point (°F) | Max | Average | Min |
|---|---|---|---|
| Dew Point | 84 | 62.05 | 46 |
| Precipitation (in) | Max | Average | Min | Sum |
|---|---|---|---|---|
| Precipitation | 0.00 | 0.00 | 0.00 | 0.00 |
| Snowdepth | 0.00 | 0.00 | 0.00 | 0.00 |
| Wind (mph) | Max | Average | Min |
|---|---|---|---|
| Wind | 35 | 4.21 | 0 |
| Gust Wind | 71 | 0.18 | 0 |
| Sea Level Pressure (in) | Max | Average | Min |
|---|---|---|---|
| Sea Level Pressure | 28.99 | 28.74 | 28.53 |
| Date | Temperature (°F) | Dew Point (°F) | Humidity (%) | Wind Speed (mph) | Pressure (in) | Precipitation (in) | ||||||||||
|---|---|---|---|---|---|---|---|---|---|---|---|---|---|---|---|---|
| Max | Avg | Min | Max | Avg | Min | Max | Avg | Min | Max | Avg | Min | Max | Avg | Min | ||
| 4/30/2019 | 104 | 92.0 | 79 | 68 | 64.7 | 59 | 69 | 42.2 | 24 | 10 | 5.3 | 0 | 28.8 | 28.7 | 28.6 | 0.00 |
| 4/29/2019 | 104 | 90.8 | 75 | 66 | 63.5 | 59 | 73 | 42.7 | 24 | 10 | 4.7 | 0 | 28.8 | 28.7 | 28.6 | 0.00 |
| 4/28/2019 | 104 | 91.3 | 79 | 68 | 61.9 | 54 | 65 | 40.0 | 19 | 12 | 5.7 | 0 | 28.8 | 28.7 | 28.6 | 0.00 |
| 4/27/2019 | 104 | 91.2 | 77 | 84 | 65.2 | 57 | 74 | 44.8 | 21 | 12 | 4.9 | 0 | 28.8 | 28.7 | 28.6 | 0.00 |
| 4/26/2019 | 104 | 88.0 | 73 | 72 | 66.5 | 57 | 88 | 53.4 | 21 | 7 | 2.6 | 0 | 28.8 | 28.7 | 28.6 | 0.00 |
| 4/25/2019 | 104 | 86.8 | 79 | 84 | 69.2 | 63 | 79 | 57.0 | 31 | 25 | 6.1 | 0 | 28.8 | 28.7 | 28.7 | 0.00 |
| 4/24/2019 | 102 | 87.3 | 73 | 70 | 67.5 | 63 | 88 | 55.2 | 27 | 8 | 3.1 | 0 | 28.9 | 28.8 | 28.7 | 0.00 |
| 4/23/2019 | 100 | 85.6 | 77 | 70 | 67.8 | 64 | 74 | 56.9 | 31 | 20 | 7.3 | 0 | 28.8 | 28.8 | 28.7 | 0.00 |
| 4/22/2019 | 102 | 84.6 | 72 | 72 | 67.4 | 59 | 94 | 60.6 | 25 | 17 | 5.5 | 0 | 28.8 | 28.7 | 28.6 | 0.00 |
| 4/21/2019 | 104 | 83.8 | 75 | 72 | 70.2 | 66 | 89 | 66.5 | 29 | 22 | 4.3 | 0 | 28.7 | 28.7 | 28.6 | 0.00 |
| 4/20/2019 | 104 | 87.0 | 77 | 75 | 67.9 | 63 | 83 | 55.4 | 29 | 35 | 4.2 | 0 | 28.8 | 28.7 | 28.5 | 0.00 |
| 4/19/2019 | 106 | 92.1 | 79 | 70 | 63.0 | 52 | 65 | 40.9 | 17 | 13 | 5.4 | 0 | 28.8 | 28.7 | 28.6 | 0.00 |
| 4/18/2019 | 104 | 89.8 | 75 | 66 | 63.7 | 59 | 69 | 44.1 | 26 | 9 | 4.3 | 0 | 28.8 | 28.7 | 28.6 | 0.00 |
| 4/17/2019 | 106 | 89.0 | 77 | 68 | 63.4 | 59 | 61 | 44.0 | 23 | 24 | 6.4 | 0 | 28.8 | 28.7 | 28.7 | 0.00 |
| 4/16/2019 | 106 | 90.2 | 73 | 64 | 59.4 | 52 | 65 | 37.4 | 19 | 8 | 3.2 | 0 | 28.8 | 28.7 | 28.7 | 0.00 |
| 4/15/2019 | 106 | 90.2 | 73 | 66 | 58.9 | 48 | 65 | 37.6 | 17 | 8 | 4.2 | 0 | 28.8 | 28.7 | 28.6 | 0.00 |
| 4/14/2019 | 106 | 89.3 | 73 | 66 | 58.7 | 52 | 65 | 38.4 | 17 | 12 | 3.8 | 0 | 28.8 | 28.7 | 28.6 | 0.00 |
| 4/13/2019 | 104 | 89.5 | 75 | 64 | 60.7 | 55 | 65 | 40.4 | 22 | 12 | 3.6 | 0 | 29.0 | 28.8 | 28.6 | 0.00 |
| 4/12/2019 | 104 | 89.1 | 75 | 64 | 61.0 | 59 | 65 | 40.8 | 23 | 7 | 2.8 | 0 | 29.0 | 28.7 | 28.6 | 0.00 |
| 4/11/2019 | 104 | 88.8 | 73 | 63 | 59.1 | 55 | 65 | 38.9 | 21 | 8 | 2.5 | 0 | 29.0 | 28.7 | 28.6 | 0.00 |
| 4/10/2019 | 102 | 89.8 | 75 | 64 | 59.5 | 54 | 65 | 38.5 | 20 | 15 | 4.7 | 0 | 28.8 | 28.7 | 28.6 | 0.00 |
| 4/9/2019 | 102 | 88.1 | 73 | 66 | 60.9 | 57 | 69 | 41.8 | 24 | 8 | 3.1 | 0 | 28.8 | 28.7 | 28.7 | 0.00 |
| 4/8/2019 | 102 | 87.3 | 72 | 64 | 57.0 | 52 | 61 | 37.7 | 20 | 10 | 3.8 | 0 | 28.8 | 28.8 | 28.7 | 0.00 |
| 4/7/2019 | 104 | 88.2 | 75 | 66 | 58.2 | 48 | 69 | 40.0 | 16 | 13 | 5.0 | 0 | 28.9 | 28.8 | 28.7 | 0.00 |
| 4/6/2019 | 100 | 86.3 | 73 | 64 | 60.8 | 54 | 69 | 44.3 | 22 | 13 | 3.8 | 0 | 28.9 | 28.8 | 28.7 | 0.00 |
| 4/5/2019 | 102 | 85.6 | 72 | 63 | 57.2 | 48 | 73 | 41.3 | 17 | 7 | 3.2 | 0 | 28.9 | 28.8 | 28.7 | 0.00 |
| 4/4/2019 | 100 | 86.7 | 73 | 63 | 60.1 | 55 | 69 | 43.2 | 22 | 7 | 2.4 | 0 | 28.9 | 28.8 | 28.7 | 0.00 |
| 4/3/2019 | 100 | 85.7 | 72 | 64 | 60.7 | 55 | 65 | 45.2 | 22 | 12 | 3.9 | 0 | 28.9 | 28.8 | 28.7 | 0.00 |
| 4/2/2019 | 102 | 85.2 | 68 | 64 | 54.9 | 46 | 68 | 38.3 | 16 | 9 | 3.4 | 0 | 28.9 | 28.8 | 28.7 | 0.00 |
| 4/1/2019 | 100 | 83.6 | 66 | 57 | 52.3 | 48 | 64 | 37.1 | 18 | 10 | 3.3 | 0 | 28.9 | 28.8 | 28.7 | 0.00 |